createdAt,value
2019-03-18T00:00:52.438Z,1002.96
2019-03-18T00:01:52.426Z,1002.97
2019-03-18T00:02:52.413Z,1003.00
2019-03-18T00:03:52.415Z,1003.02
2019-03-18T00:04:52.391Z,1003.03
2019-03-18T00:05:52.403Z,1003.03
2019-03-18T00:06:52.368Z,1003.03
2019-03-18T00:07:52.358Z,1003.07
2019-03-18T00:08:52.348Z,1003.04
2019-03-18T00:09:52.338Z,1003.09
2019-03-18T00:10:52.325Z,1003.07
2019-03-18T00:11:52.648Z,1003.04
2019-03-18T00:12:52.455Z,1003.10
2019-03-18T00:13:52.293Z,1003.09
2019-03-18T00:15:00.772Z,1003.16
2019-03-18T00:15:53.266Z,1003.12
2019-03-18T00:16:52.257Z,1003.11
2019-03-18T00:17:52.534Z,1003.13
2019-03-18T00:18:52.235Z,1003.13
2019-03-18T00:19:52.224Z,1003.16
2019-03-18T00:20:52.212Z,1003.13
2019-03-18T00:21:52.205Z,1003.11
2019-03-18T00:22:52.192Z,1003.16
2019-03-18T00:23:52.456Z,1003.07
2019-03-18T00:24:52.169Z,1003.04
2019-03-18T00:25:52.158Z,1003.07
2019-03-18T00:26:52.149Z,1003.04
2019-03-18T00:27:52.135Z,1003.02
2019-03-18T00:28:52.123Z,1003.04
2019-03-18T00:29:52.119Z,1003.07
2019-03-18T00:30:52.101Z,1003.03
2019-03-18T00:31:52.092Z,1003.04
2019-03-18T00:32:52.078Z,1003.07
2019-03-18T00:33:52.089Z,1003.05
2019-03-18T00:34:52.058Z,1003.10
2019-03-18T00:35:52.375Z,1003.11
2019-03-18T00:36:52.034Z,1003.13
2019-03-18T00:37:52.025Z,1003.09
2019-03-18T00:38:52.011Z,1003.05
2019-03-18T00:39:52.002Z,1003.06
2019-03-18T00:40:51.990Z,1003.03
2019-03-18T00:41:52.003Z,1003.09
2019-03-18T00:42:51.972Z,1003.08
2019-03-18T00:43:51.956Z,1003.02
2019-03-18T00:44:51.944Z,1003.09
2019-03-18T00:45:51.934Z,1003.08
2019-03-18T00:46:51.928Z,1003.08
2019-03-18T00:47:52.189Z,1003.07
2019-03-18T00:48:51.906Z,1003.03
2019-03-18T00:49:51.890Z,1003.09
2019-03-18T00:50:51.881Z,1003.14
2019-03-18T00:51:51.874Z,1003.17
2019-03-18T00:52:51.857Z,1003.20
2019-03-18T00:53:51.851Z,1003.18
2019-03-18T00:54:51.834Z,1003.15
2019-03-18T00:55:51.976Z,1003.11
2019-03-18T00:56:51.812Z,1003.14
2019-03-18T00:57:51.799Z,1003.19
2019-03-18T00:58:51.792Z,1003.17
2019-03-18T00:59:51.785Z,1003.24
2019-03-18T01:00:51.767Z,1003.29
2019-03-18T01:01:51.754Z,1003.34
2019-03-18T01:02:51.753Z,1003.34
2019-03-18T01:03:51.737Z,1003.36
2019-03-18T01:04:51.721Z,1003.36
2019-03-18T01:05:51.721Z,1003.37
2019-03-18T01:06:51.704Z,1003.37
2019-03-18T01:07:51.688Z,1003.35
2019-03-18T01:08:51.679Z,1003.34
2019-03-18T01:09:51.667Z,1003.34
2019-03-18T01:10:51.655Z,1003.30
2019-03-18T01:11:51.971Z,1003.32
2019-03-18T01:12:51.636Z,1003.33
2019-03-18T01:13:51.620Z,1003.34
2019-03-18T01:14:51.680Z,1003.26
2019-03-18T01:15:51.599Z,1003.29
2019-03-18T01:16:51.588Z,1003.31
2019-03-18T01:17:51.597Z,1003.32
2019-03-18T01:18:51.580Z,1003.32
2019-03-18T01:19:51.553Z,1003.35
2019-03-18T01:20:51.545Z,1003.35
2019-03-18T01:21:51.533Z,1003.40
2019-03-18T01:22:51.522Z,1003.46
2019-03-18T01:23:51.785Z,1003.47
2019-03-18T01:24:51.498Z,1003.49
2019-03-18T01:25:51.489Z,1003.51
2019-03-18T01:26:51.478Z,1003.48
2019-03-18T01:27:51.468Z,1003.42
2019-03-18T01:28:51.454Z,1003.42
2019-03-18T01:29:51.775Z,1003.42
2019-03-18T01:30:51.430Z,1003.41
2019-03-18T01:31:51.420Z,1003.42
2019-03-18T01:32:51.411Z,1003.41
2019-03-18T01:33:51.397Z,1003.42
2019-03-18T01:34:51.390Z,1003.43
2019-03-18T01:35:51.671Z,1003.41
2019-03-18T01:36:51.366Z,1003.42
2019-03-18T01:37:51.354Z,1003.43
2019-03-18T01:38:51.347Z,1003.39
2019-03-18T01:39:51.330Z,1003.38
2019-03-18T01:40:51.319Z,1003.40
2019-03-18T01:41:51.317Z,1003.33
2019-03-18T01:42:51.302Z,1003.32
2019-03-18T01:43:51.285Z,1003.29
2019-03-18T01:44:51.274Z,1003.33
2019-03-18T01:45:51.263Z,1003.35
2019-03-18T01:46:51.255Z,1003.30
2019-03-18T01:47:51.526Z,1003.29
2019-03-18T01:48:51.231Z,1003.28
2019-03-18T01:49:51.221Z,1003.28
2019-03-18T01:50:51.208Z,1003.26
2019-03-18T01:51:51.196Z,1003.25
2019-03-18T01:52:51.190Z,1003.27
2019-03-18T01:53:51.439Z,1003.23
2019-03-18T01:54:51.167Z,1003.26
2019-03-18T01:55:51.151Z,1003.28
2019-03-18T01:56:51.142Z,1003.24
2019-03-18T01:57:51.129Z,1003.25
2019-03-18T01:58:51.119Z,1003.24
2019-03-18T01:59:51.439Z,1003.28
2019-03-18T02:00:51.096Z,1003.29
2019-03-18T02:01:51.086Z,1003.29
2019-03-18T02:02:51.989Z,1003.29
2019-03-18T02:03:51.066Z,1003.28
2019-03-18T02:04:51.051Z,1003.37
2019-03-18T02:05:51.048Z,1003.35
2019-03-18T02:06:51.028Z,1003.35
2019-03-18T02:07:51.017Z,1003.31
2019-03-18T02:08:51.007Z,1003.34
2019-03-18T02:09:50.996Z,1003.31
2019-03-18T02:10:50.985Z,1003.35
2019-03-18T02:11:51.249Z,1003.35
2019-03-18T02:12:50.968Z,1003.37
2019-03-18T02:13:50.952Z,1003.34
2019-03-18T02:14:50.941Z,1003.38
2019-03-18T02:15:53.601Z,1003.35
2019-03-18T02:16:50.918Z,1003.39
2019-03-18T02:17:51.194Z,1003.33
2019-03-18T02:18:50.895Z,1003.41
2019-03-18T02:19:50.884Z,1003.38
2019-03-18T02:20:50.873Z,1003.40
2019-03-18T02:21:50.862Z,1003.42
2019-03-18T02:22:50.852Z,1003.35
2019-03-18T02:23:51.167Z,1003.38
2019-03-18T02:24:50.828Z,1003.33
2019-03-18T02:25:50.818Z,1003.33
2019-03-18T02:26:50.807Z,1003.30
2019-03-18T02:27:50.795Z,1003.38
2019-03-18T02:28:50.787Z,1003.36
2019-03-18T02:29:50.800Z,1003.40
2019-03-18T02:30:50.761Z,1003.39
2019-03-18T02:31:50.756Z,1003.42
2019-03-18T02:32:50.792Z,1003.38
2019-03-18T02:33:50.731Z,1003.36
2019-03-18T02:34:50.790Z,1003.36
2019-03-18T02:35:50.986Z,1003.34
2019-03-18T02:36:50.695Z,1003.33
2019-03-18T02:37:50.692Z,1003.36
2019-03-18T02:38:50.671Z,1003.30
2019-03-18T02:39:50.672Z,1003.37
2019-03-18T02:40:50.658Z,1003.38
2019-03-18T02:41:50.677Z,1003.33
2019-03-18T02:42:50.652Z,1003.36
2019-03-18T02:43:50.627Z,1003.39
2019-03-18T02:44:50.619Z,1003.40
2019-03-18T02:45:50.598Z,1003.43
2019-03-18T02:46:50.584Z,1003.45
2019-03-18T02:47:50.861Z,1003.43
2019-03-18T02:48:50.564Z,1003.49
2019-03-18T02:49:50.551Z,1003.44
2019-03-18T02:50:50.573Z,1003.50
2019-03-18T02:51:52.979Z,1003.48
2019-03-18T02:52:50.520Z,1003.51
2019-03-18T02:53:52.430Z,1003.42
2019-03-18T02:54:50.495Z,1003.52
2019-03-18T02:55:50.485Z,1003.46
2019-03-18T02:56:50.479Z,1003.45
2019-03-18T02:57:50.461Z,1003.37
2019-03-18T02:58:50.450Z,1003.39
2019-03-18T02:59:50.725Z,1003.38
2019-03-18T03:00:50.427Z,1003.38
2019-03-18T03:01:50.423Z,1003.41
2019-03-18T03:02:50.450Z,1003.40
2019-03-18T03:03:50.395Z,1003.35
2019-03-18T03:04:50.398Z,1003.36
2019-03-18T03:05:50.669Z,1003.42
2019-03-18T03:06:50.363Z,1003.39
2019-03-18T03:07:50.361Z,1003.42
2019-03-18T03:08:50.339Z,1003.43
2019-03-18T03:09:50.331Z,1003.41
2019-03-18T03:10:50.320Z,1003.41
2019-03-18T03:11:50.599Z,1003.43
2019-03-18T03:12:50.422Z,1003.43
2019-03-18T03:13:50.287Z,1003.42
2019-03-18T03:14:50.365Z,1003.45
2019-03-18T03:15:50.273Z,1003.47
2019-03-18T03:16:50.251Z,1003.47
2019-03-18T03:17:50.529Z,1003.45
2019-03-18T03:18:50.233Z,1003.47
2019-03-18T03:19:50.217Z,1003.44
2019-03-18T03:20:50.208Z,1003.43
2019-03-18T03:21:50.195Z,1003.46
2019-03-18T03:22:50.185Z,1003.41
2019-03-18T03:23:50.182Z,1003.48
2019-03-18T03:24:50.164Z,1003.42
2019-03-18T03:25:50.151Z,1003.44
2019-03-18T03:26:50.139Z,1003.46
2019-03-18T03:27:50.129Z,1003.49
2019-03-18T03:28:50.164Z,1003.43
2019-03-18T03:29:50.436Z,1003.52
2019-03-18T03:30:50.132Z,1003.47
2019-03-18T03:31:50.098Z,1003.56
2019-03-18T03:32:50.073Z,1003.47
2019-03-18T03:33:50.066Z,1003.52
2019-03-18T03:34:50.067Z,1003.48
2019-03-18T03:35:50.305Z,1003.51
2019-03-18T03:36:50.031Z,1003.44
2019-03-18T03:37:50.021Z,1003.48
2019-03-18T03:38:50.016Z,1003.52
2019-03-18T03:39:50.002Z,1003.50
2019-03-18T03:40:49.984Z,1003.54
2019-03-18T03:41:50.272Z,1003.54
2019-03-18T03:42:49.964Z,1003.47
2019-03-18T03:43:49.956Z,1003.54
2019-03-18T03:44:49.941Z,1003.49
2019-03-18T03:45:49.929Z,1003.51
2019-03-18T03:46:49.918Z,1003.49
2019-03-18T03:47:49.926Z,1003.54
2019-03-18T03:48:49.898Z,1003.55
2019-03-18T03:49:49.885Z,1003.55
2019-03-18T03:50:49.879Z,1003.58
2019-03-18T03:51:49.872Z,1003.54
2019-03-18T03:52:49.852Z,1003.50
2019-03-18T03:53:50.115Z,1003.45
2019-03-18T03:54:49.831Z,1003.45
2019-03-18T03:55:49.819Z,1003.56
2019-03-18T03:56:49.823Z,1003.54
2019-03-18T03:57:49.797Z,1003.50
2019-03-18T03:58:49.786Z,1003.52
2019-03-18T03:59:49.783Z,1003.54
2019-03-18T04:00:49.762Z,1003.56
2019-03-18T04:01:49.826Z,1003.58
2019-03-18T04:02:49.743Z,1003.47
2019-03-18T04:03:49.729Z,1003.57
2019-03-18T04:04:49.720Z,1003.62
2019-03-18T04:05:50.047Z,1003.63
2019-03-18T04:06:49.704Z,1003.63
2019-03-18T04:07:49.721Z,1003.64
2019-03-18T04:08:49.672Z,1003.63
2019-03-18T04:09:49.665Z,1003.64
2019-03-18T04:10:49.651Z,1003.66
2019-03-18T04:11:49.925Z,1003.63
2019-03-18T04:12:49.629Z,1003.64
2019-03-18T04:13:49.618Z,1003.63
2019-03-18T04:14:49.609Z,1003.68
2019-03-18T04:15:49.612Z,1003.73
2019-03-18T04:17:00.797Z,1003.74
2019-03-18T04:17:50.875Z,1003.73
2019-03-18T04:18:49.563Z,1003.74
2019-03-18T04:19:49.550Z,1003.76
2019-03-18T04:20:49.542Z,1003.79
2019-03-18T04:21:50.987Z,1003.73
2019-03-18T04:22:49.524Z,1003.76
2019-03-18T04:23:49.784Z,1003.80
2019-03-18T04:24:49.496Z,1003.79
2019-03-18T04:25:49.486Z,1003.74
2019-03-18T04:26:49.477Z,1003.83
2019-03-18T04:27:49.511Z,1003.79
2019-03-18T04:28:49.453Z,1003.80
2019-03-18T04:29:49.473Z,1003.86
2019-03-18T04:30:49.431Z,1003.85
2019-03-18T04:31:49.419Z,1003.87
2019-03-18T04:32:49.507Z,1003.87
2019-03-18T04:33:49.396Z,1003.88
2019-03-18T04:34:49.384Z,1003.90
2019-03-18T04:35:49.379Z,1003.96
2019-03-18T04:36:49.364Z,1003.95
2019-03-18T04:37:49.350Z,1003.88
2019-03-18T04:38:49.340Z,1003.92
2019-03-18T04:39:49.334Z,1003.92
2019-03-18T04:40:49.315Z,1003.93
2019-03-18T04:41:49.647Z,1003.90
2019-03-18T04:42:49.293Z,1003.94
2019-03-18T04:43:49.282Z,1003.95
2019-03-18T04:44:49.272Z,1003.91
2019-03-18T04:45:49.266Z,1003.90
2019-03-18T04:46:49.249Z,1003.92
2019-03-18T04:47:49.259Z,1003.88
2019-03-18T04:48:49.226Z,1003.93
2019-03-18T04:49:49.221Z,1003.96
2019-03-18T04:50:49.207Z,1003.99
2019-03-18T04:51:49.196Z,1004.04
2019-03-18T04:52:49.184Z,1004.04
2019-03-18T04:53:49.183Z,1004.09
2019-03-18T04:54:49.164Z,1004.05
2019-03-18T04:55:49.154Z,1004.14
2019-03-18T04:56:49.138Z,1004.10
2019-03-18T04:57:49.129Z,1004.10
2019-03-18T04:58:49.116Z,1004.11
2019-03-18T04:59:49.395Z,1004.13
2019-03-18T05:00:49.099Z,1004.13
2019-03-18T05:01:49.081Z,1004.19
2019-03-18T05:02:49.071Z,1004.11
2019-03-18T05:03:49.065Z,1004.08
2019-03-18T05:04:49.053Z,1004.06
2019-03-18T05:05:50.642Z,1004.12
2019-03-18T05:06:49.027Z,1004.08
2019-03-18T05:07:49.015Z,1004.13
2019-03-18T05:08:49.003Z,1004.14
2019-03-18T05:09:48.995Z,1004.15
2019-03-18T05:10:48.990Z,1004.12
2019-03-18T05:11:49.255Z,1004.15
2019-03-18T05:12:48.962Z,1004.13
2019-03-18T05:13:49.085Z,1004.19
2019-03-18T05:14:48.938Z,1004.23
2019-03-18T05:15:48.930Z,1004.25
2019-03-18T05:16:48.916Z,1004.29
2019-03-18T05:17:48.929Z,1004.31
2019-03-18T05:18:48.895Z,1004.36
2019-03-18T05:19:48.883Z,1004.41
2019-03-18T05:20:48.872Z,1004.37
2019-03-18T05:21:48.860Z,1004.38
2019-03-18T05:22:48.852Z,1004.40
2019-03-18T05:23:48.861Z,1004.43
2019-03-18T05:24:48.827Z,1004.46
2019-03-18T05:25:48.816Z,1004.49
2019-03-18T05:26:48.805Z,1004.46
2019-03-18T05:27:48.795Z,1004.44
2019-03-18T05:28:48.785Z,1004.48
2019-03-18T05:29:49.051Z,1004.46
2019-03-18T05:30:48.760Z,1004.46
2019-03-18T05:31:48.752Z,1004.50
2019-03-18T05:32:48.738Z,1004.48
2019-03-18T05:33:48.728Z,1004.47
2019-03-18T05:34:48.716Z,1004.50
2019-03-18T05:35:49.031Z,1004.52
2019-03-18T05:36:48.698Z,1004.51
2019-03-18T05:37:48.683Z,1004.51
2019-03-18T05:38:48.673Z,1004.54
2019-03-18T05:39:48.660Z,1004.57
2019-03-18T05:40:48.651Z,1004.53
2019-03-18T05:41:48.646Z,1004.53
2019-03-18T05:42:48.629Z,1004.58
2019-03-18T05:43:48.617Z,1004.60
2019-03-18T05:44:48.604Z,1004.63
2019-03-18T05:45:48.594Z,1004.65
2019-03-18T05:46:48.583Z,1004.66
2019-03-18T05:47:48.857Z,1004.69
2019-03-18T05:48:48.561Z,1004.70
2019-03-18T05:49:48.552Z,1004.69
2019-03-18T05:50:48.537Z,1004.69
2019-03-18T05:51:48.535Z,1004.65
2019-03-18T05:52:48.516Z,1004.74
2019-03-18T05:53:48.793Z,1004.74
2019-03-18T05:54:48.499Z,1004.70
2019-03-18T05:55:48.481Z,1004.70
2019-03-18T05:56:48.470Z,1004.76
2019-03-18T05:57:48.459Z,1004.78
2019-03-18T05:58:48.450Z,1004.78
2019-03-18T05:59:48.718Z,1004.83
2019-03-18T06:00:48.427Z,1004.85
2019-03-18T06:01:48.420Z,1004.88
2019-03-18T06:02:48.405Z,1004.86
2019-03-18T06:03:48.394Z,1004.84
2019-03-18T06:04:48.381Z,1004.89
2019-03-18T06:05:48.647Z,1004.91
2019-03-18T06:06:48.361Z,1004.92
2019-03-18T06:07:48.348Z,1004.92
2019-03-18T06:08:48.337Z,1004.97
2019-03-18T06:09:48.330Z,1004.94
2019-03-18T06:10:48.317Z,1004.95
2019-03-18T06:11:48.313Z,1004.91
2019-03-18T06:12:48.295Z,1004.95
2019-03-18T06:13:48.282Z,1004.92
2019-03-18T06:14:48.271Z,1004.97
2019-03-18T06:15:48.259Z,1004.93
2019-03-18T06:16:48.254Z,1004.96
2019-03-18T06:17:52.842Z,1004.99
2019-03-18T06:18:48.226Z,1005.00
2019-03-18T06:19:48.216Z,1005.05
2019-03-18T06:20:48.204Z,1005.06
2019-03-18T06:21:48.194Z,1005.09
2019-03-18T06:22:48.183Z,1005.05
2019-03-18T06:23:48.176Z,1005.07
2019-03-18T06:24:48.162Z,1005.09
2019-03-18T06:25:48.149Z,1005.09
2019-03-18T06:26:48.140Z,1005.14
2019-03-18T06:27:48.128Z,1005.17
2019-03-18T06:28:48.115Z,1005.18
2019-03-18T06:29:48.383Z,1005.19
2019-03-18T06:30:48.095Z,1005.16
2019-03-18T06:31:48.082Z,1005.22
2019-03-18T06:32:48.072Z,1005.22
2019-03-18T06:33:48.059Z,1005.24
2019-03-18T06:34:48.048Z,1005.24
2019-03-18T06:35:48.310Z,1005.21
2019-03-18T06:36:48.027Z,1005.25
2019-03-18T06:37:48.014Z,1005.23
2019-03-18T06:38:48.008Z,1005.26
2019-03-18T06:39:47.991Z,1005.26
2019-03-18T06:40:47.983Z,1005.22
2019-03-18T06:41:48.292Z,1005.26
2019-03-18T06:42:47.967Z,1005.22
2019-03-18T06:43:47.951Z,1005.23
2019-03-18T06:44:47.937Z,1005.21
2019-03-18T06:45:47.926Z,1005.21
2019-03-18T06:46:47.914Z,1005.27
2019-03-18T06:47:48.181Z,1005.21
2019-03-18T06:48:47.892Z,1005.21
2019-03-18T06:49:47.883Z,1005.21
2019-03-18T06:50:47.869Z,1005.22
2019-03-18T06:51:47.866Z,1005.20
2019-03-18T06:52:47.849Z,1005.26
2019-03-18T06:53:48.124Z,1005.24
2019-03-18T06:54:47.826Z,1005.26
2019-03-18T06:55:47.814Z,1005.28
2019-03-18T06:56:47.802Z,1005.31
2019-03-18T06:57:47.793Z,1005.28
2019-03-18T06:58:47.779Z,1005.29
2019-03-18T06:59:48.057Z,1005.33
2019-03-18T07:00:47.759Z,1005.36
2019-03-18T07:01:47.749Z,1005.29
2019-03-18T07:02:47.737Z,1005.31
2019-03-18T07:03:47.724Z,1005.30
2019-03-18T07:04:47.715Z,1005.25
2019-03-18T07:05:47.712Z,1005.33
2019-03-18T07:06:47.691Z,1005.58
2019-03-18T07:07:47.685Z,1005.36
2019-03-18T07:08:47.671Z,1005.81
2019-03-18T07:09:47.659Z,1005.49
2019-03-18T07:10:47.649Z,1005.44
2019-03-18T07:11:47.645Z,1005.47
2019-03-18T07:12:47.629Z,1005.45
2019-03-18T07:13:47.614Z,1005.60
2019-03-18T07:14:47.603Z,1005.48
2019-03-18T07:15:47.594Z,1005.49
2019-03-18T07:16:47.582Z,1005.47
2019-03-18T07:17:47.848Z,1005.44
2019-03-18T07:18:47.561Z,1005.47
2019-03-18T07:19:47.547Z,1005.49
2019-03-18T07:20:47.542Z,1005.46
2019-03-18T07:21:47.525Z,1005.35
2019-03-18T07:22:47.515Z,1005.55
2019-03-18T07:23:47.510Z,1005.45
2019-03-18T07:24:47.494Z,1005.45
2019-03-18T07:25:47.481Z,1005.36
2019-03-18T07:26:47.469Z,1005.38
2019-03-18T07:27:47.460Z,1005.40
2019-03-18T07:28:47.449Z,1005.47
2019-03-18T07:29:47.712Z,1005.48
2019-03-18T07:30:47.428Z,1005.48
2019-03-18T07:31:47.414Z,1005.45
2019-03-18T07:32:47.405Z,1005.47
2019-03-18T07:33:47.395Z,1005.46
2019-03-18T07:34:47.380Z,1005.48
2019-03-18T07:35:47.704Z,1005.47
2019-03-18T07:36:47.358Z,1005.47
2019-03-18T07:37:47.348Z,1005.55
2019-03-18T07:38:47.339Z,1005.54
2019-03-18T07:39:47.326Z,1005.56
2019-03-18T07:40:47.315Z,1005.57
2019-03-18T07:41:47.580Z,1005.46
2019-03-18T07:42:47.296Z,1005.56
2019-03-18T07:43:47.283Z,1005.55
2019-03-18T07:44:47.269Z,1005.55
2019-03-18T07:45:47.259Z,1005.53
2019-03-18T07:46:47.248Z,1005.56
2019-03-18T07:47:47.522Z,1005.55
2019-03-18T07:48:47.225Z,1005.53
2019-03-18T07:49:47.215Z,1005.51
2019-03-18T07:50:47.203Z,1005.53
2019-03-18T07:51:47.191Z,1005.51
2019-03-18T07:52:47.182Z,1005.58
2019-03-18T07:53:47.189Z,1005.56
2019-03-18T07:54:47.161Z,1005.60
2019-03-18T07:55:47.147Z,1005.55
2019-03-18T07:56:47.138Z,1005.50
2019-03-18T07:57:47.125Z,1005.71
2019-03-18T07:58:47.116Z,1005.52
2019-03-18T07:59:47.392Z,1005.51
2019-03-18T08:00:47.145Z,1005.59
2019-03-18T08:01:47.081Z,1005.51
2019-03-18T08:02:47.077Z,1005.64
2019-03-18T08:03:47.061Z,1005.63
2019-03-18T08:04:47.047Z,1005.61
2019-03-18T08:05:47.312Z,1005.61
2019-03-18T08:06:47.024Z,1005.56
2019-03-18T08:07:47.016Z,1005.75
2019-03-18T08:08:47.003Z,1005.66
2019-03-18T08:09:46.993Z,1005.68
2019-03-18T08:10:46.981Z,1005.70
2019-03-18T08:11:47.249Z,1005.69
2019-03-18T08:12:46.960Z,1005.74
2019-03-18T08:13:46.950Z,1005.79
2019-03-18T08:14:46.936Z,1005.78
2019-03-18T08:15:46.926Z,1005.77
2019-03-18T08:16:46.920Z,1005.76
2019-03-18T08:17:47.227Z,1005.76
2019-03-18T08:18:46.894Z,1005.78
2019-03-18T08:19:46.882Z,1005.79
2019-03-18T08:20:46.870Z,1005.79
2019-03-18T08:21:46.872Z,1005.84
2019-03-18T08:22:46.850Z,1005.80
2019-03-18T08:23:47.124Z,1005.85
2019-03-18T08:24:46.828Z,1005.82
2019-03-18T08:25:46.818Z,1005.87
2019-03-18T08:26:46.806Z,1005.83
2019-03-18T08:27:46.792Z,1005.78
2019-03-18T08:28:46.784Z,1005.84
2019-03-18T08:29:46.775Z,1005.87
2019-03-18T08:30:46.759Z,1005.91
2019-03-18T08:31:46.748Z,1005.95
2019-03-18T08:32:46.736Z,1005.96
2019-03-18T08:33:46.725Z,1005.94
2019-03-18T08:34:46.716Z,1005.98
2019-03-18T08:35:46.724Z,1005.96
2019-03-18T08:36:46.694Z,1006.02
2019-03-18T08:37:46.681Z,1006.02
2019-03-18T08:38:46.670Z,1006.06
2019-03-18T08:39:46.658Z,1006.06
2019-03-18T08:40:46.651Z,1006.08
2019-03-18T08:41:46.917Z,1006.11
2019-03-18T08:42:46.628Z,1006.38
2019-03-18T08:43:46.616Z,1006.15
2019-03-18T08:44:46.603Z,1006.11
2019-03-18T08:45:46.594Z,1006.11
2019-03-18T08:46:46.583Z,1006.07
2019-03-18T08:47:46.856Z,1006.13
2019-03-18T08:48:55.282Z,1006.10
2019-03-18T08:49:47.547Z,1006.15
2019-03-18T08:50:46.537Z,1006.15
2019-03-18T08:51:46.529Z,1006.16
2019-03-18T08:52:46.516Z,1006.15
2019-03-18T08:53:46.787Z,1006.12
2019-03-18T08:54:46.496Z,1006.12
2019-03-18T08:55:46.481Z,1006.08
2019-03-18T08:56:46.471Z,1006.06
2019-03-18T08:57:46.462Z,1006.05
2019-03-18T08:58:46.449Z,1006.10
2019-03-18T08:59:46.708Z,1006.10
2019-03-18T09:00:46.427Z,1006.09
2019-03-18T09:01:46.419Z,1006.06
2019-03-18T09:02:46.416Z,1006.05
2019-03-18T09:03:46.392Z,1006.06
2019-03-18T09:04:46.383Z,1006.07
2019-03-18T09:05:46.647Z,1006.09
2019-03-18T09:06:46.360Z,1006.09
2019-03-18T09:07:46.350Z,1006.09
2019-03-18T09:08:46.339Z,1006.14
2019-03-18T09:09:46.327Z,1006.15
2019-03-18T09:10:46.316Z,1006.08
2019-03-18T09:11:46.324Z,1006.14
2019-03-18T09:12:46.293Z,1006.18
2019-03-18T09:13:46.281Z,1006.18
2019-03-18T09:14:46.271Z,1006.17
2019-03-18T09:15:46.259Z,1006.21
2019-03-18T09:16:46.249Z,1006.19
2019-03-18T09:17:46.560Z,1006.21
2019-03-18T09:18:46.226Z,1006.23
2019-03-18T09:19:46.215Z,1006.22
2019-03-18T09:20:46.204Z,1006.26
2019-03-18T09:21:46.192Z,1006.22
2019-03-18T09:22:46.181Z,1006.25
2019-03-18T09:23:46.448Z,1006.26
2019-03-18T09:24:46.162Z,1006.25
2019-03-18T09:25:46.146Z,1006.33
2019-03-18T09:26:46.137Z,1006.27
2019-03-18T09:27:46.131Z,1006.33
2019-03-18T09:28:46.114Z,1006.34
2019-03-18T09:29:46.456Z,1006.32
2019-03-18T09:30:46.093Z,1006.39
2019-03-18T09:31:46.083Z,1006.39
2019-03-18T09:32:46.075Z,1006.36
2019-03-18T09:33:46.059Z,1006.42
2019-03-18T09:34:46.049Z,1006.40
2019-03-18T09:35:46.044Z,1006.48
2019-03-18T09:36:46.029Z,1006.40
2019-03-18T09:37:46.015Z,1006.39
2019-03-18T09:38:46.003Z,1006.41
2019-03-18T09:39:45.997Z,1006.37
2019-03-18T09:40:45.981Z,1006.40
2019-03-18T09:41:45.976Z,1006.39
2019-03-18T09:42:45.967Z,1006.42
2019-03-18T09:43:45.947Z,1006.47
2019-03-18T09:44:45.937Z,1006.47
2019-03-18T09:45:45.926Z,1006.52
2019-03-18T09:46:45.915Z,1006.54
2019-03-18T09:47:45.925Z,1006.56
2019-03-18T09:48:45.891Z,1006.51
2019-03-18T09:49:45.884Z,1006.59
2019-03-18T09:50:45.870Z,1006.56
2019-03-18T09:51:45.860Z,1006.58
2019-03-18T09:52:45.849Z,1006.52
2019-03-18T09:53:46.109Z,1006.46
2019-03-18T09:54:45.825Z,1006.56
2019-03-18T09:55:45.819Z,1006.52
2019-03-18T09:56:45.803Z,1006.50
2019-03-18T09:57:45.793Z,1006.47
2019-03-18T09:58:45.783Z,1006.45
2019-03-18T09:59:46.056Z,1006.42
2019-03-18T10:00:45.759Z,1006.40
2019-03-18T10:01:45.749Z,1006.48
2019-03-18T10:02:45.745Z,1006.47
2019-03-18T10:03:45.727Z,1006.42
2019-03-18T10:04:45.714Z,1006.43
2019-03-18T10:05:46.041Z,1006.39
2019-03-18T10:06:48.301Z,1006.40
2019-03-18T10:07:45.682Z,1006.43
2019-03-18T10:08:45.672Z,1006.52
2019-03-18T10:09:45.659Z,1006.50
2019-03-18T10:10:45.648Z,1006.54
2019-03-18T10:11:45.922Z,1006.54
2019-03-18T10:12:45.631Z,1006.65
2019-03-18T10:13:45.616Z,1006.57
2019-03-18T10:14:45.607Z,1006.60
2019-03-18T10:15:45.594Z,1006.65
2019-03-18T10:16:45.585Z,1006.61
2019-03-18T10:17:45.849Z,1006.49
2019-03-18T10:18:45.561Z,1006.59
2019-03-18T10:19:45.553Z,1006.69
2019-03-18T10:20:45.540Z,1006.61
2019-03-18T10:21:45.525Z,1006.69
2019-03-18T10:22:45.517Z,1006.70
2019-03-18T10:23:45.782Z,1006.67
2019-03-18T10:24:45.495Z,1006.69
2019-03-18T10:25:45.482Z,1006.71
2019-03-18T10:26:45.470Z,1006.72
2019-03-18T10:27:45.460Z,1006.71
2019-03-18T10:28:45.448Z,1006.72
2019-03-18T10:29:45.723Z,1006.68
2019-03-18T10:30:45.427Z,1006.73
2019-03-18T10:31:45.418Z,1006.66
2019-03-18T10:32:45.404Z,1006.72
2019-03-18T10:33:45.395Z,1006.76
2019-03-18T10:34:45.382Z,1006.83
2019-03-18T10:35:45.674Z,1006.82
2019-03-18T10:36:45.359Z,1007.24
2019-03-18T10:37:45.348Z,1006.93
2019-03-18T10:38:45.338Z,1006.79
2019-03-18T10:39:45.331Z,1006.84
2019-03-18T10:40:45.316Z,1006.84
2019-03-18T10:41:45.578Z,1006.96
2019-03-18T10:42:45.298Z,1006.95
2019-03-18T10:43:45.282Z,1006.98
2019-03-18T10:44:45.272Z,1007.01
2019-03-18T10:45:45.263Z,1007.00
2019-03-18T10:46:45.248Z,1006.99
2019-03-18T10:47:45.510Z,1007.00
2019-03-18T10:48:45.227Z,1006.98
2019-03-18T10:49:46.649Z,1006.97
2019-03-18T10:50:45.207Z,1007.05
2019-03-18T10:51:48.065Z,1007.02
2019-03-18T10:52:45.184Z,1007.01
2019-03-18T10:53:45.217Z,1006.98
2019-03-18T10:54:45.170Z,1007.07
2019-03-18T10:55:45.152Z,1007.07
2019-03-18T10:56:45.144Z,1007.04
2019-03-18T10:57:45.129Z,1007.05
2019-03-18T10:58:45.116Z,1006.99
2019-03-18T10:59:45.395Z,1006.98
2019-03-18T11:00:45.094Z,1007.02
2019-03-18T11:01:45.084Z,1007.03
2019-03-18T11:02:45.636Z,1007.09
2019-03-18T11:03:45.063Z,1007.10
2019-03-18T11:04:45.049Z,1007.04
2019-03-18T11:05:45.323Z,1007.10
2019-03-18T11:06:45.029Z,1007.27
2019-03-18T11:07:45.018Z,1007.26
2019-03-18T11:08:45.007Z,1007.35
2019-03-18T11:09:44.997Z,1007.20
2019-03-18T11:10:44.985Z,1007.29
2019-03-18T11:11:45.262Z,1007.34
2019-03-18T11:12:44.961Z,1007.18
2019-03-18T11:13:44.963Z,1007.26
2019-03-18T11:14:44.940Z,1007.35
2019-03-18T11:15:44.927Z,1007.28
2019-03-18T11:16:44.918Z,1007.28
2019-03-18T11:17:45.190Z,1007.37
2019-03-18T11:18:44.895Z,1007.20
2019-03-18T11:19:44.885Z,1007.40
2019-03-18T11:20:44.874Z,1007.29
2019-03-18T11:21:44.862Z,1007.20
2019-03-18T11:22:44.854Z,1007.37
2019-03-18T11:23:45.122Z,1007.26
2019-03-18T11:24:44.828Z,1007.21
2019-03-18T11:25:44.818Z,1006.97
2019-03-18T11:26:44.806Z,1007.22
2019-03-18T11:27:44.794Z,1007.28
2019-03-18T11:28:44.786Z,1007.14
2019-03-18T11:29:45.057Z,1007.19
2019-03-18T11:30:44.771Z,1007.23
2019-03-18T11:31:44.751Z,1007.28
2019-03-18T11:32:44.741Z,1007.14
2019-03-18T11:33:44.728Z,1007.21
2019-03-18T11:34:44.718Z,1007.14
2019-03-18T11:35:44.983Z,1007.25
2019-03-18T11:36:44.696Z,1007.24
2019-03-18T11:37:44.686Z,1007.39
2019-03-18T11:38:44.674Z,1007.22
2019-03-18T11:39:44.662Z,1007.28
2019-03-18T11:40:44.655Z,1007.20
2019-03-18T11:41:46.521Z,1007.27
2019-03-18T11:42:44.628Z,1007.29
2019-03-18T11:43:44.619Z,1007.19
2019-03-18T11:44:44.606Z,1007.20
2019-03-18T11:45:44.596Z,1007.39
2019-03-18T11:46:44.585Z,1007.43
2019-03-18T11:47:44.901Z,1007.30
2019-03-18T11:48:44.562Z,1007.30
2019-03-18T11:49:44.558Z,1007.30
2019-03-18T11:50:44.547Z,1007.26
2019-03-18T11:51:44.530Z,1007.39
2019-03-18T11:52:44.519Z,1007.35
2019-03-18T11:53:44.831Z,1007.27
2019-03-18T11:54:44.551Z,1007.27
2019-03-18T11:55:44.484Z,1007.27
2019-03-18T11:56:44.476Z,1007.30
2019-03-18T11:57:44.466Z,1007.23
2019-03-18T11:58:44.451Z,1007.23
2019-03-18T11:59:46.887Z,1007.22
2019-03-18T12:00:44.429Z,1007.28
2019-03-18T12:01:44.419Z,1007.33
2019-03-18T12:02:44.409Z,1007.38
2019-03-18T12:03:44.398Z,1007.43
2019-03-18T12:04:44.387Z,1007.27
2019-03-18T12:05:44.383Z,1007.32